الصفحة الرئيسية
METAR-TAF:

METAR-TAF

مطار :

St. George Municipal Airport

St. George, يوتا, الولايات المتحدة

دائرة عرض: 37-05N, خط طول: 113-36W, ارتفاع: 896 متر

مراقبة الطقس الحالي

تاريخ ووقت الإصدار 38 دقيقة قبل الساعة 08:56UTC
ريح 3 عقدة من الجنوب الشرقي
درجة الحرارة 16°درجة مئوية
الرطوبة 20%
ضغط 1024 hPa
الرؤية: 16.1 كم
سماء صافية

METAR: KSGU 290856Z AUTO 14003KT 10SM CLR 16/M07 A3023 RMK AO2 SLP209 T01611067 51005

زمن: 03:34 (09:34 UTC)

توقعات

تاريخ ووقت الإصدار 4ساعات و 14 دقيقة قبل الساعة 05:20UTC
التوقعات صالحة من29 الساعة 06 UTC إلى 30 الساعة 06 UTC
ريح 15 عقدة من الشرق/الشمال الشرقي تتزايد حتى 25 عقدة
الرؤية: 10 كم
سماء صافية
من 29 الساعة 0900 UTC
ريح 5 عقدةمن اتجاهات متغيرة
الرؤية: 10 كم
سماء صافية

TAF: KSGU 290520Z 2906/3006 06015G25KT P6SM SKC FM290900 VRB05KT P6SM SKC

أرصاد الطقس والتوقعات من أكثر من 4000 مطار (تقارير الطقس للمطار METAR والتنبؤ بالطقس بالمطارTAF).

المحطات المتاحة هي النقط الصفراء والحمراء على الخريطة.

حرك المؤشر فوق النقطة لمعرفة اسم المحطة.

ثم انقر لمعرفة أرصاد وتوقعات الطقس.

لتغيير الخارطة: اضغط على الأزرار الخضراء مع رمز الصليب الأسود للتكبير. على الزر الأخضر مع شرطة للتصغير، أو على الأسهم الخضراء للخرائط المجاورة.


METAR-TAF: